createdAt,value
2018-07-17T00:01:18.336Z,39.78
2018-07-17T00:03:47.502Z,39.77
2018-07-17T00:06:16.588Z,39.72
2018-07-17T00:08:45.876Z,39.87
2018-07-17T00:11:14.988Z,40.19
2018-07-17T00:13:44.241Z,40.00
2018-07-17T00:16:13.538Z,39.80
2018-07-17T00:18:42.678Z,40.08
2018-07-17T00:21:11.797Z,40.08
2018-07-17T00:23:40.868Z,40.08
2018-07-17T00:26:09.964Z,40.25
2018-07-17T00:28:39.049Z,40.17
2018-07-17T00:31:08.234Z,39.83
2018-07-17T00:33:37.380Z,40.39
2018-07-17T00:36:06.552Z,40.08
2018-07-17T00:38:35.646Z,40.30
2018-07-17T00:41:04.728Z,40.35
2018-07-17T00:43:33.806Z,40.16
2018-07-17T00:46:02.894Z,40.36
2018-07-17T00:48:32.054Z,40.72
2018-07-17T00:51:01.094Z,40.66
2018-07-17T00:53:30.215Z,40.79
2018-07-17T00:55:59.326Z,40.37
2018-07-17T00:58:28.428Z,40.42
2018-07-17T01:00:57.783Z,40.81
2018-07-17T01:03:32.360Z,40.47
2018-07-17T01:06:07.880Z,40.92
2018-07-17T01:08:42.339Z,40.68
2018-07-17T01:11:16.736Z,40.95
2018-07-17T01:13:50.698Z,40.83
2018-07-17T01:16:19.845Z,40.87
2018-07-17T01:18:48.977Z,40.68
2018-07-17T01:21:18.124Z,40.66
2018-07-17T01:23:47.204Z,40.73
2018-07-17T01:26:16.306Z,40.71
2018-07-17T01:28:45.422Z,40.85
2018-07-17T01:31:14.506Z,41.13
2018-07-17T01:33:43.606Z,40.68
2018-07-17T01:36:12.696Z,40.95
2018-07-17T01:38:41.969Z,40.83
2018-07-17T01:41:11.026Z,40.80
2018-07-17T01:43:40.239Z,41.10
2018-07-17T01:46:09.318Z,41.31
2018-07-17T01:48:38.496Z,41.40
2018-07-17T01:51:07.581Z,41.00
2018-07-17T01:53:36.652Z,41.08
2018-07-17T01:56:06.095Z,41.42
2018-07-17T01:58:35.172Z,41.02
2018-07-17T02:01:04.272Z,41.43
2018-07-17T02:03:33.336Z,41.26
2018-07-17T02:06:02.487Z,41.51
2018-07-17T02:08:32.130Z,41.18
2018-07-17T02:11:01.210Z,40.96
2018-07-17T02:13:30.281Z,41.05
2018-07-17T02:15:59.344Z,41.53
2018-07-17T02:18:28.420Z,41.53
2018-07-17T02:20:57.546Z,41.42
2018-07-17T02:23:26.622Z,41.54
2018-07-17T02:25:55.745Z,41.27
2018-07-17T02:28:24.844Z,41.28
2018-07-17T02:30:54.060Z,41.54
2018-07-17T02:33:23.148Z,41.81
2018-07-17T02:35:52.221Z,41.58
2018-07-17T02:38:21.318Z,41.37
2018-07-17T02:40:50.426Z,41.66
2018-07-17T02:43:19.496Z,41.05
2018-07-17T02:45:48.620Z,40.92
2018-07-17T02:48:17.708Z,40.93
2018-07-17T02:50:46.840Z,41.40
2018-07-17T02:53:15.996Z,41.64
2018-07-17T02:55:45.099Z,41.12
2018-07-17T02:58:14.219Z,41.47
2018-07-17T03:00:43.391Z,41.70
2018-07-17T03:03:12.510Z,41.58
2018-07-17T03:05:41.694Z,41.52
2018-07-17T03:08:10.785Z,41.90
2018-07-17T03:10:39.895Z,41.35
2018-07-17T03:13:08.984Z,41.60
2018-07-17T03:15:38.279Z,41.39
2018-07-17T03:18:07.490Z,41.67
2018-07-17T03:20:36.604Z,41.56
2018-07-17T03:23:05.780Z,41.85
2018-07-17T03:25:34.996Z,41.41
2018-07-17T03:28:04.180Z,41.64
2018-07-17T03:30:33.271Z,41.53
2018-07-17T03:33:02.386Z,41.85
2018-07-17T03:35:31.480Z,41.62
2018-07-17T03:38:00.680Z,41.46
2018-07-17T03:40:29.855Z,41.52
2018-07-17T03:42:58.971Z,41.15
2018-07-17T03:45:28.074Z,41.37
2018-07-17T03:47:57.243Z,40.95
2018-07-17T03:50:26.370Z,41.17
2018-07-17T03:52:55.528Z,41.07
2018-07-17T03:55:24.691Z,41.62
2018-07-17T03:57:53.831Z,41.24
2018-07-17T04:00:22.925Z,41.17
2018-07-17T04:02:52.103Z,40.98
2018-07-17T04:05:21.424Z,40.81
2018-07-17T04:07:50.517Z,41.04
2018-07-17T04:10:19.613Z,41.22
2018-07-17T04:12:48.811Z,41.12
2018-07-17T04:15:17.896Z,41.19
2018-07-17T04:17:46.995Z,41.12
2018-07-17T04:20:16.538Z,41.14
2018-07-17T04:22:45.708Z,41.21
2018-07-17T04:25:14.916Z,40.95
2018-07-17T04:27:44.102Z,41.09
2018-07-17T04:30:13.220Z,41.31
2018-07-17T04:32:42.350Z,40.75
2018-07-17T04:35:12.140Z,40.76
2018-07-17T04:37:41.330Z,41.03
2018-07-17T04:40:10.418Z,40.68
2018-07-17T04:42:39.501Z,41.19
2018-07-17T04:45:08.584Z,40.73
2018-07-17T04:47:37.699Z,40.98
2018-07-17T04:50:06.843Z,40.89
2018-07-17T04:52:36.000Z,41.18
2018-07-17T04:55:05.282Z,40.91
2018-07-17T04:57:34.472Z,41.20
2018-07-17T05:00:03.695Z,40.86
2018-07-17T05:02:32.900Z,41.04
2018-07-17T05:05:02.064Z,40.78
2018-07-17T05:07:32.266Z,41.01
2018-07-17T05:10:01.561Z,41.05
2018-07-17T05:12:30.674Z,40.82
2018-07-17T05:14:59.801Z,41.15
2018-07-17T05:17:28.901Z,41.25
2018-07-17T05:19:57.970Z,40.95
2018-07-17T05:22:27.224Z,41.24
2018-07-17T05:24:56.307Z,41.00
2018-07-17T05:27:25.521Z,41.19
2018-07-17T05:29:54.668Z,41.15
2018-07-17T05:32:23.779Z,41.43
2018-07-17T05:34:52.881Z,41.16
2018-07-17T05:37:22.072Z,41.65
2018-07-17T05:39:51.388Z,41.54
2018-07-17T05:42:20.480Z,41.22
2018-07-17T05:44:49.616Z,41.56
2018-07-17T05:47:18.868Z,41.68
2018-07-17T05:49:48.048Z,41.59
2018-07-17T05:52:17.160Z,41.74
2018-07-17T05:54:46.249Z,41.27
2018-07-17T05:57:15.310Z,41.72
2018-07-17T05:59:44.385Z,41.42
2018-07-17T06:02:13.603Z,41.43
2018-07-17T06:04:42.735Z,41.94
2018-07-17T06:07:11.818Z,41.38
2018-07-17T06:09:40.899Z,41.75
2018-07-17T06:12:10.137Z,41.77
2018-07-17T06:14:39.217Z,41.53
2018-07-17T06:17:08.296Z,41.76
2018-07-17T06:19:37.356Z,41.84
2018-07-17T06:22:06.606Z,41.52
2018-07-17T06:24:35.896Z,41.59
2018-07-17T06:27:05.256Z,42.10
2018-07-17T06:29:34.697Z,42.03
2018-07-17T06:32:03.778Z,42.05
2018-07-17T06:34:32.920Z,42.21
2018-07-17T06:37:01.986Z,41.78
2018-07-17T06:39:31.078Z,41.94
2018-07-17T06:42:00.176Z,41.75
2018-07-17T06:44:29.293Z,41.99
2018-07-17T06:46:58.556Z,42.18
2018-07-17T06:49:27.644Z,41.73
2018-07-17T06:51:56.718Z,42.10
2018-07-17T06:54:25.787Z,41.90
2018-07-17T06:56:54.873Z,41.71
2018-07-17T06:59:23.987Z,42.04
2018-07-17T07:01:53.139Z,41.76
2018-07-17T07:04:22.231Z,41.77
2018-07-17T07:06:51.319Z,42.08
2018-07-17T07:09:20.435Z,41.82
2018-07-17T07:11:49.529Z,41.89
2018-07-17T07:14:18.624Z,41.94
2018-07-17T07:16:47.728Z,41.81
2018-07-17T07:19:16.797Z,41.69
2018-07-17T07:21:45.902Z,41.65
2018-07-17T07:24:15.671Z,41.76
2018-07-17T07:26:44.755Z,41.75
2018-07-17T07:29:14.367Z,41.51
2018-07-17T07:31:43.507Z,41.48
2018-07-17T07:34:12.591Z,41.76
2018-07-17T07:36:41.735Z,41.64
2018-07-17T07:39:11.288Z,41.24
2018-07-17T07:41:40.411Z,41.67
2018-07-17T07:44:09.519Z,41.82
2018-07-17T07:46:38.749Z,41.57
2018-07-17T07:49:07.948Z,41.78
2018-07-17T07:51:37.213Z,41.61
2018-07-17T07:54:06.544Z,41.69
2018-07-17T09:09:42.684Z,38.44
2018-07-17T09:12:11.921Z,37.39
2018-07-17T09:14:41.037Z,37.59
2018-07-17T09:17:10.124Z,38.00
2018-07-17T09:19:39.394Z,36.71
2018-07-17T09:22:08.521Z,36.67
2018-07-17T09:24:43.004Z,36.48
2018-07-17T09:27:12.225Z,36.02
2018-07-17T09:29:41.409Z,35.73
2018-07-17T09:32:11.272Z,35.85
2018-07-17T09:34:40.415Z,35.79
2018-07-17T09:37:09.642Z,36.16
2018-07-17T09:39:38.689Z,35.85
2018-07-17T09:42:07.819Z,36.13
2018-07-17T09:44:37.012Z,36.20
2018-07-17T09:47:06.717Z,35.91
2018-07-17T09:49:35.812Z,36.41
2018-07-17T09:52:04.902Z,36.35
2018-07-17T09:54:35.722Z,36.12
2018-07-17T09:57:04.827Z,36.30
2018-07-17T09:59:33.895Z,36.14
2018-07-17T10:02:37.876Z,36.35
2018-07-17T10:05:07.032Z,36.50
2018-07-17T10:07:36.147Z,36.53
2018-07-17T10:10:05.234Z,36.93
2018-07-17T10:12:34.312Z,36.80
2018-07-17T10:15:03.401Z,36.83
2018-07-17T10:17:32.567Z,37.02
2018-07-17T10:20:01.737Z,37.02
2018-07-17T10:22:30.966Z,37.24
2018-07-17T10:25:00.336Z,37.63
2018-07-17T10:27:29.491Z,37.39
2018-07-17T10:29:58.616Z,37.84
2018-07-17T10:32:27.729Z,37.77
2018-07-17T10:34:57.030Z,38.14
2018-07-17T10:37:26.066Z,37.84
2018-07-17T10:39:55.208Z,38.01
2018-07-17T10:42:24.398Z,38.08
2018-07-17T10:44:53.561Z,37.93
2018-07-17T10:47:22.717Z,37.97
2018-07-17T10:49:51.942Z,37.63
2018-07-17T10:52:21.103Z,37.82
2018-07-17T10:54:50.316Z,38.09
2018-07-17T10:57:19.508Z,38.21
2018-07-17T10:59:48.654Z,37.81
2018-07-17T11:02:17.775Z,38.06
2018-07-17T11:04:46.875Z,37.61
2018-07-17T11:07:16.092Z,37.71
2018-07-17T11:09:45.275Z,37.61
2018-07-17T11:12:14.384Z,37.14
2018-07-17T11:14:43.468Z,37.39
2018-07-17T11:17:12.678Z,37.25
2018-07-17T11:19:41.774Z,37.47
2018-07-17T11:22:10.820Z,37.57
2018-07-17T11:24:39.943Z,37.34
2018-07-17T11:27:09.148Z,37.74
2018-07-17T11:29:38.260Z,37.47
2018-07-17T11:32:07.331Z,37.43
2018-07-17T11:34:36.399Z,37.10
2018-07-17T11:37:05.736Z,37.38
2018-07-17T11:39:34.844Z,37.64
2018-07-17T11:42:03.942Z,37.38
2018-07-17T11:44:33.028Z,36.84
2018-07-17T11:47:02.121Z,37.32
2018-07-17T11:49:31.205Z,37.31
2018-07-17T11:52:00.307Z,36.92
2018-07-17T11:54:29.411Z,36.67
2018-07-17T11:56:58.520Z,36.84
2018-07-17T11:59:27.641Z,36.63
2018-07-17T12:01:56.902Z,36.61
2018-07-17T12:04:26.004Z,36.88
2018-07-17T12:06:55.496Z,36.75
2018-07-17T12:09:24.591Z,36.52
2018-07-17T12:11:53.703Z,37.01
2018-07-17T12:14:22.880Z,36.63
2018-07-17T12:16:52.003Z,36.66
2018-07-17T12:19:21.182Z,36.27
2018-07-17T12:21:50.279Z,35.95
2018-07-17T12:24:19.370Z,36.23
2018-07-17T12:26:48.493Z,35.84
2018-07-17T12:29:17.569Z,36.04
2018-07-17T12:31:46.841Z,35.76
2018-07-17T12:34:16.149Z,35.57
2018-07-17T12:36:45.215Z,35.96
2018-07-17T12:39:14.340Z,35.34
2018-07-17T12:41:43.448Z,35.75
2018-07-17T12:44:12.551Z,35.90
2018-07-17T12:46:41.805Z,36.21
2018-07-17T12:49:10.960Z,36.65
2018-07-17T12:51:40.341Z,36.40
2018-07-17T12:54:09.431Z,36.58
2018-07-17T12:56:38.520Z,36.40
2018-07-17T12:59:07.627Z,36.34
2018-07-17T13:01:36.716Z,35.94
2018-07-17T13:04:06.013Z,35.73
2018-07-17T13:06:35.076Z,34.51
2018-07-17T13:09:05.746Z,34.91
2018-07-17T13:11:34.843Z,34.78
2018-07-17T13:14:03.967Z,34.54
2018-07-17T13:16:33.345Z,34.58
2018-07-17T13:19:02.436Z,34.54
2018-07-17T13:21:31.555Z,34.61
2018-07-17T13:24:00.636Z,34.47
2018-07-17T13:26:29.703Z,34.27
2018-07-17T13:28:58.818Z,34.41
2018-07-17T13:31:27.921Z,34.49
2018-07-17T13:33:57.008Z,35.25
2018-07-17T13:36:26.147Z,36.48
2018-07-17T13:38:55.224Z,37.17
2018-07-17T13:41:24.444Z,36.83
2018-07-17T13:43:53.506Z,37.02
2018-07-17T13:46:22.632Z,36.91
2018-07-17T13:48:51.739Z,37.20
2018-07-17T13:51:20.836Z,37.16
2018-07-17T13:53:49.992Z,36.76
2018-07-17T13:56:19.160Z,37.16
2018-07-17T13:58:48.376Z,37.36
2018-07-17T14:01:17.440Z,38.10
2018-07-17T14:03:46.573Z,38.08
2018-07-17T14:06:15.644Z,37.90
2018-07-17T14:08:44.747Z,37.05
2018-07-17T14:11:13.847Z,37.07
2018-07-17T14:13:42.935Z,37.14
2018-07-17T14:16:12.059Z,36.79
2018-07-17T14:18:41.153Z,36.88
2018-07-17T14:21:10.255Z,36.96
2018-07-17T14:23:39.367Z,37.60
2018-07-17T14:26:08.865Z,38.57
2018-07-17T14:28:37.944Z,38.51
2018-07-17T14:31:07.307Z,37.44
2018-07-17T14:33:37.111Z,38.20
2018-07-17T14:36:06.919Z,38.12
2018-07-17T14:38:36.124Z,37.91
2018-07-17T14:41:05.277Z,37.88
2018-07-17T14:43:34.380Z,37.33
2018-07-17T14:46:03.465Z,37.42
2018-07-17T14:48:33.833Z,37.42
2018-07-17T14:51:02.995Z,40.14
2018-07-17T14:53:32.103Z,38.78
2018-07-17T14:56:01.289Z,38.84
2018-07-17T14:58:30.371Z,38.28
2018-07-17T15:00:59.477Z,38.42
2018-07-17T15:03:28.557Z,37.98
2018-07-17T15:05:57.762Z,38.07
2018-07-17T15:08:27.119Z,38.04
2018-07-17T15:10:56.255Z,38.39
2018-07-17T15:13:25.335Z,38.08
2018-07-17T15:15:54.460Z,37.83
2018-07-17T15:18:23.719Z,38.79
2018-07-17T15:20:52.863Z,38.79
2018-07-17T15:23:21.935Z,38.96
2018-07-17T15:25:51.043Z,39.32
2018-07-17T15:28:20.170Z,39.13
2018-07-17T15:30:49.351Z,39.16
2018-07-17T15:33:18.975Z,38.87
2018-07-17T15:35:48.156Z,39.17
2018-07-17T15:38:17.257Z,38.87
2018-07-17T15:40:46.854Z,38.98
2018-07-17T15:43:15.940Z,39.07
2018-07-17T15:45:45.077Z,38.55
2018-07-17T15:48:14.336Z,38.99
2018-07-17T15:50:43.540Z,39.15
2018-07-17T15:53:18.198Z,40.04
2018-07-17T15:55:47.336Z,39.85
2018-07-17T15:58:16.484Z,40.20
2018-07-17T16:00:45.584Z,39.87
2018-07-17T16:03:14.737Z,39.57
2018-07-17T16:05:43.867Z,39.37
2018-07-17T16:08:13.136Z,39.31
2018-07-17T16:10:42.249Z,39.22
2018-07-17T16:13:11.366Z,39.00
2018-07-17T16:15:40.444Z,38.73
2018-07-17T16:18:09.615Z,38.19
2018-07-17T16:20:38.726Z,37.89
2018-07-17T16:23:07.803Z,37.59
2018-07-17T16:25:36.934Z,37.57
2018-07-17T16:28:06.196Z,38.12
2018-07-17T16:30:35.281Z,37.53
2018-07-17T16:33:04.624Z,37.74
2018-07-17T16:35:33.684Z,37.83
2018-07-17T16:38:02.807Z,37.02
2018-07-17T16:40:32.061Z,36.86
2018-07-17T16:43:01.216Z,36.63
2018-07-17T16:45:30.404Z,37.32
2018-07-17T16:47:59.507Z,37.29
2018-07-17T16:50:28.787Z,36.97
2018-07-17T16:52:57.868Z,36.26
2018-07-17T16:55:27.138Z,36.35
2018-07-17T16:57:56.223Z,36.79
2018-07-17T17:00:25.392Z,36.07
2018-07-17T17:02:54.483Z,36.34
2018-07-17T17:05:23.684Z,36.17
2018-07-17T17:07:52.988Z,36.61
2018-07-17T17:10:22.034Z,36.36
2018-07-17T17:12:51.184Z,36.09
2018-07-17T17:15:20.280Z,35.77
2018-07-17T17:17:49.420Z,36.56
2018-07-17T17:20:18.526Z,35.79
2018-07-17T17:22:47.894Z,35.91
2018-07-17T17:25:17.367Z,36.16
2018-07-17T17:27:46.454Z,35.55
2018-07-17T17:30:15.556Z,35.53
2018-07-17T17:32:44.787Z,35.74
2018-07-17T17:35:14.362Z,35.96
2018-07-17T17:37:43.442Z,36.08
2018-07-17T17:40:12.542Z,35.66
2018-07-17T17:42:41.652Z,35.82
2018-07-17T17:45:10.744Z,35.44
2018-07-17T17:47:39.837Z,35.49
2018-07-17T17:50:09.136Z,35.24
2018-07-17T17:52:38.452Z,35.65
2018-07-17T17:55:07.628Z,35.05
2018-07-17T17:57:36.725Z,35.15
2018-07-17T18:00:06.146Z,35.37
2018-07-17T18:02:35.285Z,35.41
2018-07-17T18:05:04.644Z,35.23
2018-07-17T18:07:33.827Z,35.54
2018-07-17T18:10:03.105Z,34.98
2018-07-17T18:12:32.208Z,35.47
2018-07-17T18:15:01.308Z,36.11
2018-07-17T18:17:30.388Z,36.18
2018-07-17T18:19:59.704Z,35.50
2018-07-17T18:22:28.789Z,35.18
2018-07-17T18:24:57.900Z,33.64
2018-07-17T18:27:26.983Z,33.54
2018-07-17T18:29:56.089Z,33.58
2018-07-17T18:32:25.225Z,33.64
2018-07-17T18:34:54.384Z,33.54
2018-07-17T18:37:23.476Z,33.69
2018-07-17T18:39:52.582Z,33.42
2018-07-17T18:42:21.675Z,33.91
2018-07-17T18:44:50.774Z,33.51
2018-07-17T18:47:19.856Z,33.41
2018-07-17T18:49:59.755Z,33.37
2018-07-17T18:52:18.269Z,33.21
2018-07-17T18:54:47.559Z,33.71
2018-07-17T18:57:16.655Z,33.12
2018-07-17T18:59:46.152Z,33.34
2018-07-17T19:02:15.399Z,33.51
2018-07-17T19:04:44.481Z,33.49
2018-07-17T19:07:13.574Z,33.51
2018-07-17T19:09:42.659Z,33.42
2018-07-17T19:12:11.814Z,33.29
2018-07-17T19:14:41.058Z,33.32
2018-07-17T19:17:10.153Z,33.24
2018-07-17T19:19:39.239Z,33.40
2018-07-17T19:22:08.391Z,33.91
2018-07-17T19:24:37.619Z,33.95
2018-07-17T19:27:06.839Z,33.73
2018-07-17T19:29:35.981Z,33.79
2018-07-17T19:32:05.067Z,34.24
2018-07-17T19:34:34.211Z,34.30
2018-07-17T19:37:03.299Z,34.22
2018-07-17T19:39:32.379Z,34.79
2018-07-17T19:42:01.495Z,34.76
2018-07-17T19:44:30.675Z,35.20
2018-07-17T19:46:59.821Z,34.95
2018-07-17T19:49:28.914Z,35.30
2018-07-17T19:51:58.021Z,35.31
2018-07-17T19:54:27.261Z,35.46
2018-07-17T19:56:56.387Z,35.29
2018-07-17T19:59:25.483Z,35.92
2018-07-17T20:01:54.543Z,35.75
2018-07-17T20:04:23.701Z,35.43
2018-07-17T20:06:52.879Z,35.52
2018-07-17T20:09:21.967Z,35.79
2018-07-17T20:11:51.061Z,35.71
2018-07-17T20:14:20.631Z,35.74
2018-07-17T20:16:49.877Z,36.31
2018-07-17T20:19:18.938Z,36.66
2018-07-17T20:21:48.080Z,36.21
2018-07-17T20:24:17.151Z,36.76
2018-07-17T20:26:46.264Z,36.60
2018-07-17T20:29:15.555Z,36.79
2018-07-17T20:31:44.632Z,37.04
2018-07-17T20:34:13.703Z,36.77
2018-07-17T20:36:42.796Z,36.71
2018-07-17T20:39:11.981Z,36.44
2018-07-17T20:41:41.704Z,36.57
2018-07-17T20:44:10.888Z,36.56
2018-07-17T20:46:40.049Z,36.64
2018-07-17T20:49:09.157Z,36.72
2018-07-17T20:51:38.257Z,36.65
2018-07-17T20:54:07.537Z,36.88
2018-07-17T20:56:36.644Z,36.89
2018-07-17T20:59:05.720Z,36.63
2018-07-17T21:01:34.850Z,36.95
2018-07-17T21:04:04.441Z,36.69
2018-07-17T21:06:33.527Z,36.84
2018-07-17T21:09:02.622Z,37.04
2018-07-17T21:11:31.732Z,36.85
2018-07-17T21:14:00.800Z,37.11
2018-07-17T21:16:29.884Z,37.12
2018-07-17T21:18:59.442Z,37.14
2018-07-17T21:21:28.628Z,36.92
2018-07-17T21:23:57.710Z,36.83
2018-07-17T21:26:26.952Z,37.03
2018-07-17T21:28:56.416Z,37.20
2018-07-17T21:31:25.512Z,37.26
2018-07-17T21:33:54.722Z,37.16
2018-07-17T21:36:23.836Z,36.82
2018-07-17T21:38:52.932Z,37.37
2018-07-17T21:41:23.618Z,37.22
2018-07-17T21:43:52.674Z,37.47
2018-07-17T21:46:21.818Z,37.70
2018-07-17T21:48:51.318Z,37.55
2018-07-17T21:51:20.412Z,37.62
2018-07-17T21:53:49.486Z,37.40
2018-07-17T21:56:18.598Z,37.51
2018-07-17T21:58:47.696Z,37.71
2018-07-17T22:01:17.136Z,37.43
2018-07-17T22:03:46.200Z,37.33
2018-07-17T22:06:15.276Z,37.50
2018-07-17T22:08:44.406Z,37.65
2018-07-17T22:11:13.490Z,37.38
